Time;durP1;ratioP1;P1;durP2;ratioP2;P2;SDS_P1;SDS_P2;PMS_P1;PMS_P2;Temp;Humidity;BMP_temperature;BMP_pressure;BME280_temperature;BME280_humidity;BME280_pressure;Samples;Min_cycle;Max_cycle;Signal;HPM_P1;HPM_P2
2022/05/02 00:00:29;;;;;;;11.02;7.90;;;13.40;67.50;;;;;;5033853;28;20085;-73
2022/05/02 00:02:55;;;;;;;7.60;6.80;;;13.30;67.50;;;;;;5033809;28;20104;-72
2022/05/02 00:05:21;;;;;;;9.75;7.63;;;13.30;67.60;;;;;;5033657;28;20117;-73
2022/05/02 00:07:46;;;;;;;10.80;7.60;;;13.10;68.00;;;;;;5033865;28;20087;-72
2022/05/02 00:10:13;;;;;;;9.52;7.00;;;12.90;68.40;;;;;;5033817;28;20025;-72
2022/05/02 00:12:39;;;;;;;8.50;6.97;;;12.70;69.00;;;;;;5033740;28;20087;-72
2022/05/02 00:15:05;;;;;;;10.27;7.18;;;12.40;69.70;;;;;;5033486;28;20100;-73
2022/05/02 00:20:16;;;;;;;9.85;5.72;;;12.00;71.10;;;;;;5033847;28;20064;-72
2022/05/02 00:22:42;;;;;;;8.88;7.03;;;12.00;71.30;;;;;;5033742;28;20042;-72
2022/05/02 00:25:08;;;;;;;8.40;6.97;;;12.10;71.30;;;;;;5033772;28;20480;-73
2022/05/02 00:27:33;;;;;;;13.95;7.15;;;12.20;71.20;;;;;;5033245;28;20516;-71
2022/05/02 00:30:00;;;;;;;7.72;6.10;;;12.30;71.10;;;;;;5033187;28;20037;-71
2022/05/02 00:32:25;;;;;;;7.95;7.13;;;12.40;71.10;;;;;;5033254;28;20033;-71
2022/05/02 00:34:51;;;;;;;10.65;6.88;;;12.50;70.80;;;;;;5033542;28;20065;-71
2022/05/02 00:37:18;;;;;;;8.50;5.93;;;12.60;70.60;;;;;;5033464;28;20032;-71
2022/05/02 00:39:44;;;;;;;8.52;6.63;;;12.70;70.60;;;;;;5033576;28;20030;-72
2022/05/02 00:42:09;;;;;;;7.85;5.75;;;12.80;70.30;;;;;;5033040;28;20033;-71
2022/05/02 00:44:35;;;;;;;8.40;6.53;;;12.80;70.30;;;;;;5033337;28;20033;-71
2022/05/02 00:47:00;;;;;;;10.27;6.70;;;12.90;70.20;;;;;;5032801;28;20045;-71
2022/05/02 00:49:26;;;;;;;8.60;6.88;;;12.90;70.00;;;;;;5033454;28;20026;-71
2022/05/02 00:51:52;;;;;;;8.25;6.50;;;12.80;70.10;;;;;;5033325;28;20108;-71
2022/05/02 00:54:17;;;;;;;8.57;6.65;;;12.70;70.30;;;;;;5032803;28;20079;-71
2022/05/02 00:56:43;;;;;;;10.57;7.05;;;12.80;70.50;;;;;;5033188;28;20060;-72
2022/05/02 00:59:14;;;;;;;10.07;7.28;;;12.80;70.30;;;;;;5033038;28;20358;-72
2022/05/02 01:01:41;;;;;;;11.38;7.63;;;12.80;70.40;;;;;;5033663;28;20028;-72
2022/05/02 01:04:06;;;;;;;9.57;7.00;;;12.90;70.30;;;;;;5033221;28;20029;-72
2022/05/02 01:09:16;;;;;;;11.95;7.28;;;12.90;70.10;;;;;;5032839;28;20487;-71
2022/05/02 01:11:41;;;;;;;9.18;7.05;;;12.90;70.00;;;;;;5033251;28;20120;-71
2022/05/02 01:14:08;;;;;;;7.18;6.15;;;12.90;70.10;;;;;;5032827;28;20394;-71
2022/05/02 01:16:34;;;;;;;8.73;7.22;;;12.80;70.10;;;;;;5032891;28;20029;-71
2022/05/02 01:19:00;;;;;;;10.85;7.97;;;12.80;70.30;;;;;;5033184;28;20087;-71
2022/05/02 01:21:29;;;;;;;10.80;7.38;;;12.80;70.20;;;;;;5032614;28;20049;-72
2022/05/02 01:23:58;;;;;;;12.88;8.75;;;12.70;70.40;;;;;;5032921;28;20112;-72
2022/05/02 01:26:24;;;;;;;12.65;9.35;;;12.70;70.40;;;;;;5033060;28;20041;-72
2022/05/02 01:28:55;;;;;;;13.35;8.85;;;12.80;70.40;;;;;;5032973;28;20495;-72
2022/05/02 01:31:21;;;;;;;14.50;9.55;;;12.70;70.40;;;;;;5033037;28;20025;-72
2022/05/02 01:33:48;;;;;;;11.15;8.52;;;12.70;70.30;;;;;;5032715;28;20021;-72
2022/05/02 01:36:14;;;;;;;9.65;7.43;;;12.70;70.50;;;;;;5032525;28;20487;-72
2022/05/02 01:38:40;;;;;;;10.63;6.70;;;12.70;70.40;;;;;;5032874;28;20029;-72
2022/05/02 01:41:07;;;;;;;11.20;8.07;;;12.70;70.60;;;;;;5032653;28;20028;-72
2022/05/02 01:43:33;;;;;;;9.10;6.30;;;12.70;70.50;;;;;;5032636;28;20659;-72
2022/05/02 01:45:59;;;;;;;12.90;9.13;;;12.70;70.70;;;;;;5032197;28;20136;-72
2022/05/02 01:48:25;;;;;;;11.13;8.57;;;12.70;70.60;;;;;;5032641;28;20535;-72
2022/05/02 01:50:51;;;;;;;12.23;8.57;;;12.60;70.60;;;;;;5032848;28;20059;-72
2022/05/02 01:53:16;;;;;;;16.17;9.35;;;12.50;70.80;;;;;;5032902;28;20026;-72
2022/05/02 01:55:42;;;;;;;9.95;8.30;;;12.50;70.90;;;;;;5036079;28;20061;-72
2022/05/02 01:58:08;;;;;;;11.25;8.00;;;12.40;71.20;;;;;;5036464;28;20026;-72
2022/05/02 02:00:33;;;;;;;8.88;6.63;;;12.40;71.30;;;;;;5036128;28;20098;-72
2022/05/02 02:02:59;;;;;;;11.85;8.85;;;12.30;71.50;;;;;;5036055;28;20071;-72
2022/05/02 02:08:08;;;;;;;11.63;7.18;;;12.20;71.60;;;;;;5036259;28;20171;-72
2022/05/02 02:10:34;;;;;;;9.90;8.07;;;12.10;72.20;;;;;;5035858;28;20072;-72
2022/05/02 02:13:00;;;;;;;10.73;8.05;;;12.10;72.10;;;;;;5035855;28;20026;-72
2022/05/02 02:15:26;;;;;;;14.77;8.95;;;12.20;72.30;;;;;;5035986;28;20025;-72
2022/05/02 02:17:51;;;;;;;11.48;8.75;;;12.20;72.10;;;;;;5036039;28;20048;-72
2022/05/02 02:20:17;;;;;;;9.60;6.97;;;12.30;72.00;;;;;;5035800;28;20109;-72
2022/05/02 02:22:43;;;;;;;15.88;9.90;;;12.40;72.10;;;;;;5035592;28;20469;-72
2022/05/02 02:25:09;;;;;;;12.38;9.07;;;12.40;71.80;;;;;;5036009;28;20032;-72
2022/05/02 02:27:34;;;;;;;12.75;8.80;;;12.50;71.70;;;;;;5035544;28;20451;-72
2022/05/02 02:30:00;;;;;;;13.90;9.95;;;12.50;71.60;;;;;;5035806;28;20083;-72
2022/05/02 02:32:27;;;;;;;18.23;10.32;;;12.60;71.30;;;;;;5035514;28;20076;-72
2022/05/02 02:34:53;;;;;;;16.13;9.98;;;12.70;71.20;;;;;;5035486;28;20468;-72
2022/05/02 02:37:19;;;;;;;12.00;7.90;;;12.70;71.70;;;;;;5035121;28;20057;-72
2022/05/02 02:39:45;;;;;;;12.18;8.48;;;12.80;71.10;;;;;;5035619;28;20064;-72
2022/05/02 02:42:11;;;;;;;7.15;5.90;;;12.80;70.90;;;;;;5035571;28;20022;-72
2022/05/02 02:44:36;;;;;;;9.90;7.70;;;12.90;70.70;;;;;;5035456;28;20060;-72
2022/05/02 02:47:03;;;;;;;10.60;7.18;;;12.90;70.50;;;;;;5035074;28;20104;-72
2022/05/02 02:49:29;;;;;;;9.52;5.70;;;12.90;70.50;;;;;;5034974;28;20025;-72
2022/05/02 02:51:54;;;;;;;9.18;6.97;;;13.00;70.50;;;;;;5035337;28;20036;-72
2022/05/02 02:54:20;;;;;;;8.30;4.90;;;13.00;70.40;;;;;;5035486;28;20017;-72
2022/05/02 02:56:46;;;;;;;4.90;4.18;;;13.10;70.30;;;;;;5035291;28;20385;-72
2022/05/02 02:59:12;;;;;;;6.47;5.40;;;13.10;70.50;;;;;;5035387;28;20045;-72
2022/05/02 03:01:38;;;;;;;8.38;6.95;;;13.20;70.50;;;;;;5034875;28;20030;-72
2022/05/02 03:06:01;;;;;;;9.93;6.97;;;13.30;70.00;;;;;;5034926;28;20104;-72
2022/05/02 03:06:50;;;;;;;7.43;6.57;;;13.20;69.70;;;;;;5034877;28;20029;-72
2022/05/02 03:09:16;;;;;;;8.27;6.50;;;13.20;69.50;;;;;;5034604;28;20064;-72
2022/05/02 03:11:41;;;;;;;7.13;5.55;;;13.20;69.70;;;;;;5035113;28;20079;-72
2022/05/02 03:14:07;;;;;;;6.53;5.80;;;13.20;69.90;;;;;;5034711;28;20031;-72
2022/05/02 03:16:32;;;;;;;7.68;6.78;;;13.20;70.00;;;;;;5035002;28;20064;-72
2022/05/02 03:18:58;;;;;;;8.05;6.45;;;13.20;70.00;;;;;;5034560;28;20030;-72
2022/05/02 03:21:24;;;;;;;7.63;5.75;;;13.20;69.90;;;;;;5034828;28;20053;-72
2022/05/02 03:23:49;;;;;;;9.93;7.05;;;13.20;70.00;;;;;;5034243;28;20022;-72
2022/05/02 03:26:15;;;;;;;12.40;8.32;;;13.20;69.80;;;;;;5034588;28;20029;-72
2022/05/02 03:28:40;;;;;;;9.10;6.82;;;13.20;69.60;;;;;;5034600;28;20053;-72
2022/05/02 03:31:06;;;;;;;11.95;8.02;;;13.10;69.40;;;;;;5034471;28;20030;-72
2022/05/02 03:33:32;;;;;;;14.13;8.02;;;13.00;69.50;;;;;;5034305;28;20036;-72
2022/05/02 03:35:57;;;;;;;7.22;6.45;;;12.90;69.40;;;;;;5034538;28;20459;-72
2022/05/02 03:38:23;;;;;;;6.30;5.35;;;12.90;69.90;;;;;;5034316;28;20041;-72
2022/05/02 03:40:48;;;;;;;10.48;8.70;;;13.00;70.20;;;;;;5034542;28;20025;-72
2022/05/02 03:43:14;;;;;;;8.73;6.40;;;12.90;69.60;;;;;;5034651;28;20445;-72
2022/05/02 03:45:39;;;;;;;8.35;5.97;;;12.90;69.80;;;;;;5033640;28;20060;-72
2022/05/02 03:48:05;;;;;;;10.18;8.50;;;12.90;70.20;;;;;;5034332;28;20033;-72
2022/05/02 03:50:31;;;;;;;8.45;6.70;;;12.90;69.60;;;;;;5034196;28;20091;-72
2022/05/02 03:52:57;;;;;;;11.10;8.38;;;12.90;69.90;;;;;;5034048;28;20029;-72
2022/05/02 03:55:23;;;;;;;9.30;7.38;;;12.80;69.70;;;;;;5033955;28;20048;-72
2022/05/02 03:57:49;;;;;;;9.57;8.00;;;12.80;69.90;;;;;;5032659;28;20029;-72
2022/05/02 04:00:15;;;;;;;10.60;8.40;;;12.80;69.70;;;;;;5033886;28;20028;-72
2022/05/02 04:02:41;;;;;;;11.32;8.25;;;12.70;69.60;;;;;;5033622;28;20080;-71
2022/05/02 04:05:07;;;;;;;12.32;8.10;;;12.50;70.00;;;;;;5034044;28;20026;-72
2022/05/02 04:07:33;;;;;;;13.75;9.57;;;12.50;70.40;;;;;;5034009;28;20061;-72
2022/05/02 04:09:58;;;;;;;11.40;8.10;;;12.40;70.30;;;;;;5033996;28;20492;-72
2022/05/02 04:12:24;;;;;;;12.50;9.23;;;12.20;70.90;;;;;;5033812;28;20485;-72
2022/05/02 04:14:49;;;;;;;11.15;7.78;;;12.10;71.30;;;;;;5033371;28;20021;-71
2022/05/02 04:17:15;;;;;;;11.32;8.85;;;12.00;71.90;;;;;;5033185;28;20025;-72
2022/05/02 04:19:41;;;;;;;14.25;8.30;;;12.00;71.70;;;;;;5033766;28;20021;-72
2022/05/02 04:22:06;;;;;;;10.85;8.55;;;12.00;72.10;;;;;;5033584;28;20029;-72
2022/05/02 04:24:32;;;;;;;14.30;8.15;;;12.00;72.10;;;;;;5033746;28;20030;-71
2022/05/02 04:26:58;;;;;;;13.25;8.20;;;11.90;72.00;;;;;;5033381;28;20037;-72
2022/05/02 04:29:24;;;;;;;10.93;8.98;;;12.00;72.00;;;;;;5033601;28;20385;-72
2022/05/02 04:31:50;;;;;;;12.52;8.80;;;11.90;72.00;;;;;;5033279;28;20029;-72
2022/05/02 04:34:16;;;;;;;14.30;9.80;;;11.90;72.10;;;;;;5033390;28;20133;-72
2022/05/02 04:36:41;;;;;;;8.85;7.03;;;11.90;72.40;;;;;;5033432;28;20021;-72
2022/05/02 04:39:07;;;;;;;11.93;9.10;;;11.90;73.00;;;;;;5033507;28;20021;-72
2022/05/02 04:41:33;;;;;;;12.98;9.18;;;11.90;72.80;;;;;;5033193;28;20025;-72
2022/05/02 04:43:58;;;;;;;12.70;9.73;;;11.80;72.60;;;;;;5032955;28;20022;-71
2022/05/02 04:46:26;;;;;;;12.55;9.50;;;11.80;72.90;;;;;;5032696;28;20053;-72
2022/05/02 04:48:52;;;;;;;13.38;9.90;;;11.80;73.20;;;;;;5033168;28;20397;-72
2022/05/02 04:51:18;;;;;;;15.32;10.50;;;11.60;73.80;;;;;;5033374;28;20075;-72
2022/05/02 04:53:44;;;;;;;13.43;9.82;;;11.50;74.50;;;;;;5033468;28;20104;-72
2022/05/02 04:56:09;;;;;;;12.15;9.82;;;11.30;75.00;;;;;;5032927;28;20021;-72
2022/05/02 04:58:35;;;;;;;14.18;10.68;;;11.30;75.50;;;;;;5033070;28;20057;-72
2022/05/02 05:01:01;;;;;;;22.25;11.40;;;11.20;76.10;;;;;;5033035;28;20057;-72
2022/05/02 05:03:26;;;;;;;16.20;11.50;;;11.00;76.70;;;;;;5032987;28;20393;-71
2022/05/02 05:05:54;;;;;;;12.68;9.93;;;11.00;77.30;;;;;;5033051;28;20469;-71
2022/05/02 05:08:19;;;;;;;14.15;9.77;;;10.90;77.40;;;;;;5033164;28;20117;-71
2022/05/02 05:10:50;;;;;;;13.02;10.77;;;11.00;77.40;;;;;;5032641;28;20057;-72
2022/05/02 05:13:23;;;;;;;12.90;9.50;;;10.90;77.80;;;;;;5032697;28;20026;-71
2022/05/02 05:16:28;;;;;;;16.50;12.05;;;11.00;77.90;;;;;;5032713;28;20075;-72
2022/05/02 05:19:09;;;;;;;14.85;10.55;;;11.00;78.30;;;;;;5032861;28;20497;-72
2022/05/02 05:21:53;;;;;;;11.88;8.25;;;11.00;78.30;;;;;;5032806;28;20029;-72
2022/05/02 05:24:36;;;;;;;9.32;7.97;;;11.20;78.10;;;;;;5032551;28;20171;-72
2022/05/02 05:27:10;;;;;;;10.15;8.05;;;11.40;77.80;;;;;;5032477;28;20553;-72
2022/05/02 05:30:03;;;;;;;13.50;9.45;;;11.60;77.40;;;;;;5035147;28;20381;-72
2022/05/02 05:32:45;;;;;;;13.88;9.63;;;11.70;76.90;;;;;;5036571;28;20059;-72
2022/05/02 05:35:14;;;;;;;12.88;9.30;;;11.70;76.50;;;;;;5036656;28;20109;-72
2022/05/02 05:38:08;;;;;;;17.15;10.10;;;11.80;76.60;;;;;;5036340;28;20053;-72
2022/05/02 05:40:44;;;;;;;11.07;8.90;;;11.90;76.50;;;;;;5036389;28;20040;-72
2022/05/02 05:43:21;;;;;;;15.68;9.68;;;12.00;76.30;;;;;;5036686;28;20033;-72
2022/05/02 05:46:06;;;;;;;14.57;9.27;;;12.10;76.00;;;;;;5036093;28;20059;-72
2022/05/02 05:48:57;;;;;;;14.50;9.88;;;12.20;75.70;;;;;;5036044;28;20080;-72
2022/05/02 05:51:22;;;;;;;10.27;7.82;;;12.20;75.60;;;;;;5036063;28;20413;-72
2022/05/02 05:54:29;;;;;;;11.32;8.05;;;12.40;75.70;;;;;;5036220;28;20029;-72
2022/05/02 05:57:18;;;;;;;8.40;6.85;;;12.40;75.20;;;;;;4994454;28;20089;-71
2022/05/02 06:00:06;;;;;;;8.00;6.70;;;12.60;75.10;;;;;;5033555;28;20041;-73
2022/05/02 06:02:50;;;;;;;6.95;6.00;;;12.80;75.00;;;;;;5036157;28;20039;-73
2022/05/02 06:05:17;;;;;;;13.63;8.93;;;12.90;74.80;;;;;;5035582;28;20028;-73
2022/05/02 06:07:45;;;;;;;11.98;8.50;;;13.00;74.20;;;;;;5037611;28;20044;-76
2022/05/02 06:10:13;;;;;;;8.68;7.53;;;13.10;74.50;;;;;;5051565;28;20476;-72
2022/05/02 06:12:41;;;;;;;15.80;8.63;;;13.10;73.70;;;;;;5054814;28;20033;-71
2022/05/02 06:20:43;;;;;;;18.00;9.43;;;13.40;72.90;;;;;;5054443;28;20035;-75
2022/05/02 06:23:13;;;;;;;11.23;8.38;;;13.40;72.90;;;;;;5054366;28;20078;-72
2022/05/02 06:25:41;;;;;;;11.45;8.25;;;13.40;72.80;;;;;;5055188;28;20029;-72
2022/05/02 06:28:08;;;;;;;11.70;8.20;;;13.50;72.50;;;;;;5054924;28;20041;-72
2022/05/02 06:30:41;;;;;;;12.95;7.82;;;13.50;72.20;;;;;;5054758;28;20104;-76
2022/05/02 06:33:13;;;;;;;9.93;6.60;;;13.60;72.90;;;;;;5054110;28;20071;-76
2022/05/02 06:35:56;;;;;;;9.77;7.63;;;13.70;72.70;;;;;;5054625;28;20033;-72
2022/05/02 06:38:45;;;;;;;12.82;6.47;;;13.70;72.10;;;;;;5054864;28;20036;-71
2022/05/02 06:41:36;;;;;;;10.52;7.03;;;13.80;72.40;;;;;;5053627;28;20031;-73
2022/05/02 06:45:03;;;;;;;10.30;7.55;;;13.80;71.90;;;;;;5053629;28;20039;-74
2022/05/02 06:48:03;;;;;;;11.02;7.28;;;13.90;71.50;;;;;;5035623;28;20083;-74
2022/05/02 06:50:32;;;;;;;12.82;7.05;;;13.80;71.70;;;;;;5054608;28;20052;-72
2022/05/02 06:53:24;;;;;;;8.88;6.55;;;13.80;71.70;;;;;;5054395;28;20020;-72
2022/05/02 06:56:23;;;;;;;8.02;6.47;;;13.80;71.90;;;;;;5054716;28;20112;-72
2022/05/02 06:59:14;;;;;;;9.10;6.28;;;13.90;71.50;;;;;;5054084;28;20079;-72
2022/05/02 07:01:39;;;;;;;10.40;6.32;;;13.90;70.80;;;;;;5054844;28;20032;-73
2022/05/02 07:04:26;;;;;;;8.90;5.97;;;14.00;71.00;;;;;;5054428;28;20020;-73
2022/05/02 07:07:16;;;;;;;7.50;5.40;;;14.00;70.30;;;;;;5051631;28;20036;-73
2022/05/02 07:09:55;;;;;;;9.18;5.82;;;14.10;68.80;;;;;;5054057;28;20062;-72
2022/05/02 07:12:23;;;;;;;8.10;5.78;;;14.10;68.90;;;;;;5053505;28;20083;-72
2022/05/02 07:14:57;;;;;;;8.82;5.88;;;14.20;68.80;;;;;;5043264;28;20107;-72
2022/05/02 07:17:42;;;;;;;10.43;5.38;;;14.20;68.50;;;;;;5052965;28;20063;-72
2022/05/02 07:20:37;;;;;;;8.65;5.93;;;14.30;68.50;;;;;;5047153;28;20068;-72
2022/05/02 07:23:21;;;;;;;7.55;5.63;;;14.40;68.20;;;;;;5021923;28;20127;-72
2022/05/02 07:25:53;;;;;;;8.00;5.93;;;14.40;68.90;;;;;;5053222;28;20412;-72
2022/05/02 07:28:46;;;;;;;10.55;7.22;;;14.60;68.90;;;;;;5052509;28;20036;-72
2022/05/02 07:31:13;;;;;;;9.32;7.13;;;14.80;66.90;;;;;;5052494;28;20029;-72
2022/05/02 07:33:40;;;;;;;9.48;6.97;;;14.80;66.90;;;;;;5052709;28;20131;-72
2022/05/02 07:36:07;;;;;;;10.23;6.65;;;14.80;67.20;;;;;;5052973;28;20032;-72
2022/05/02 07:38:35;;;;;;;11.48;6.78;;;15.00;64.80;;;;;;5052452;28;20085;-72
2022/05/02 07:41:23;;;;;;;8.85;6.50;;;15.10;67.20;;;;;;5052714;28;20029;-72
2022/05/02 07:43:52;;;;;;;9.30;6.75;;;15.20;66.60;;;;;;5052800;28;20024;-72
2022/05/02 07:46:28;;;;;;;10.43;6.43;;;15.30;65.60;;;;;;5052316;28;20404;-72
2022/05/02 07:48:59;;;;;;;11.90;6.65;;;15.40;65.10;;;;;;5052564;28;20159;-72
2022/05/02 07:51:26;;;;;;;10.85;6.30;;;15.40;64.30;;;;;;5051556;28;20031;-72
2022/05/02 07:53:53;;;;;;;8.70;6.10;;;15.50;64.30;;;;;;5052042;28;20476;-72
2022/05/02 07:56:23;;;;;;;10.50;6.25;;;15.50;63.90;;;;;;5052508;28;20025;-72
2022/05/02 07:58:53;;;;;;;9.93;6.85;;;15.40;65.10;;;;;;5051970;28;20025;-72
2022/05/02 08:01:20;;;;;;;11.38;6.93;;;15.60;63.90;;;;;;5052332;28;20081;-72
2022/05/02 08:03:46;;;;;;;16.40;6.72;;;15.60;65.00;;;;;;5051901;28;20027;-73
2022/05/02 08:06:43;;;;;;;10.88;6.57;;;15.70;64.10;;;;;;5051460;28;20033;-73
2022/05/02 08:09:39;;;;;;;9.75;6.55;;;15.90;63.70;;;;;;5050324;28;20060;-72
2022/05/02 08:12:13;;;;;;;9.68;6.40;;;15.90;63.10;;;;;;5051351;28;20028;-72
2022/05/02 08:15:09;;;;;;;9.90;7.40;;;16.00;63.30;;;;;;5051568;28;20033;-73
2022/05/02 08:18:26;;;;;;;10.07;7.00;;;16.10;62.10;;;;;;5051853;28;20082;-73
2022/05/02 08:21:04;;;;;;;12.07;7.68;;;16.20;62.30;;;;;;5030022;28;20488;-73
2022/05/02 08:27:15;;;;;;;9.48;6.07;;;16.40;61.20;;;;;;5051508;28;20086;-74
2022/05/02 08:30:01;;;;;;;10.48;6.65;;;16.50;60.50;;;;;;5049751;28;20033;-73
2022/05/02 08:32:46;;;;;;;13.95;7.60;;;16.40;59.80;;;;;;5051135;28;20467;-74
2022/05/02 08:35:17;;;;;;;11.48;7.30;;;16.40;61.70;;;;;;5050461;28;20798;-73
2022/05/02 08:37:48;;;;;;;12.20;8.02;;;16.60;60.10;;;;;;5049556;28;20468;-72
2022/05/02 08:40:23;;;;;;;10.40;6.03;;;16.70;60.60;;;;;;5051744;28;20112;-73
2022/05/02 08:43:07;;;;;;;9.20;7.45;;;16.80;60.90;;;;;;5051355;28;20079;-73
2022/05/02 08:46:02;;;;;;;9.70;7.93;;;17.00;58.00;;;;;;5051272;28;20049;-72
2022/05/02 08:48:28;;;;;;;13.10;8.10;;;17.00;57.70;;;;;;5051487;28;20041;-73
2022/05/02 08:51:12;;;;;;;10.00;7.78;;;16.80;58.30;;;;;;5051154;28;20127;-73
2022/05/02 08:53:49;;;;;;;10.43;7.38;;;17.00;59.20;;;;;;5051547;28;20468;-72
2022/05/02 08:56:42;;;;;;;11.45;7.60;;;17.20;58.10;;;;;;5051425;28;20053;-73
2022/05/02 08:59:26;;;;;;;9.88;7.05;;;17.20;58.80;;;;;;5050935;28;20170;-73
2022/05/02 09:02:36;;;;;;;9.68;7.40;;;17.30;57.40;;;;;;5051361;28;20432;-73
2022/05/02 09:05:34;;;;;;;10.38;6.68;;;17.50;57.60;;;;;;5055468;28;20773;-73
2022/05/02 09:08:08;;;;;;;9.18;7.40;;;17.60;58.10;;;;;;5055799;28;20115;-73
2022/05/02 09:11:11;;;;;;;11.40;8.43;;;17.70;57.20;;;;;;5055140;28;20437;-74
2022/05/02 09:14:02;;;;;;;11.73;8.00;;;17.60;56.20;;;;;;5052721;28;20056;-73
2022/05/02 09:16:45;;;;;;;14.02;8.32;;;17.40;56.50;;;;;;5055271;28;20500;-73
2022/05/02 09:19:33;;;;;;;9.80;7.88;;;17.20;56.70;;;;;;5055509;28;20494;-73
2022/05/02 09:22:16;;;;;;;16.58;7.93;;;17.40;56.40;;;;;;5056122;28;20029;-73
2022/05/02 09:25:07;;;;;;;15.35;7.70;;;17.60;56.20;;;;;;5054738;28;20032;-73
2022/05/02 09:28:02;;;;;;;8.52;6.43;;;17.60;55.00;;;;;;5054893;28;20041;-74
2022/05/02 09:30:58;;;;;;;11.57;8.30;;;17.90;56.10;;;;;;5052123;28;20091;-73
2022/05/02 09:33:41;;;;;;;11.57;7.57;;;18.20;55.50;;;;;;5054795;28;20709;-73
2022/05/02 09:36:24;;;;;;;11.02;7.40;;;18.20;56.80;;;;;;5054365;28;20029;-73
2022/05/02 09:38:57;;;;;;;8.65;5.75;;;18.40;55.70;;;;;;5055093;28;20033;-73
2022/05/02 09:41:25;;;;;;;9.38;6.55;;;18.60;55.90;;;;;;5055007;28;20032;-73
2022/05/02 09:50:14;;;;;;;7.40;6.53;;;18.00;56.10;;;;;;5052323;28;20075;-73
2022/05/02 09:52:58;;;;;;;13.75;7.93;;;18.10;55.30;;;;;;5054242;28;20468;-73
2022/05/02 09:58:45;;;;;;;11.02;6.30;;;18.20;54.70;;;;;;5030887;28;20427;-85
2022/05/02 10:01:22;;;;;;;12.27;6.93;;;18.20;54.70;;;;;;5053970;28;20044;-84
2022/05/02 10:04:12;;;;;;;8.38;5.40;;;18.40;55.40;;;;;;5055389;28;20029;-83
2022/05/02 10:06:40;;;;;;;10.88;6.35;;;18.50;55.20;;;;;;5054208;28;20553;-84
2022/05/02 10:09:36;;;;;;;8.90;6.82;;;18.60;54.00;;;;;;5051588;28;20111;-81
2022/05/02 10:12:29;;;;;;;8.82;6.95;;;18.80;53.60;;;;;;5055083;28;20036;-79
2022/05/02 10:15:19;;;;;;;7.43;6.05;;;18.90;52.00;;;;;;5052742;28;20381;-75
2022/05/02 10:18:01;;;;;;;11.68;6.45;;;18.80;51.90;;;;;;5054298;28;20362;-75
2022/05/02 10:20:54;;;;;;;9.55;7.50;;;18.70;52.40;;;;;;5053391;28;20051;-75
2022/05/02 10:23:57;;;;;;;9.35;6.28;;;18.50;52.50;;;;;;5053975;28;20048;-75
2022/05/02 10:26:23;;;;;;;;;;;18.30;53.20;;;;;;5054275;28;20037;-75
2022/05/02 10:29:26;;;;;;;11.05;8.00;;;18.30;52.80;;;;;;5053714;28;19915;-75
2022/05/02 10:32:01;;;;;;;8.57;6.90;;;18.10;52.10;;;;;;5053949;28;20029;-75
2022/05/02 10:34:29;;;;;;;12.60;6.97;;;17.80;53.60;;;;;;5054006;28;20040;-75
2022/05/02 10:36:57;;;;;;;10.93;7.22;;;18.10;55.30;;;;;;5053282;28;20090;-76
2022/05/02 10:39:40;;;;;;;10.70;7.07;;;18.30;53.70;;;;;;5053895;28;20112;-75
2022/05/02 10:42:07;;;;;;;9.52;7.22;;;18.30;52.60;;;;;;5053170;28;20033;-75
2022/05/02 10:44:50;;;;;;;9.65;7.50;;;18.20;53.60;;;;;;5053844;28;20082;-75
2022/05/02 10:47:19;;;;;;;8.05;5.90;;;18.20;53.80;;;;;;5053566;28;20536;-75
2022/05/02 10:50:03;;;;;;;10.35;6.60;;;18.40;53.90;;;;;;5053458;28;20028;-75
2022/05/02 10:52:30;;;;;;;9.88;6.70;;;18.60;53.10;;;;;;5053500;28;20047;-72
2022/05/02 10:55:05;;;;;;;11.70;6.90;;;18.90;53.10;;;;;;5053542;28;20028;-72
2022/05/02 10:57:38;;;;;;;10.70;7.32;;;19.00;51.40;;;;;;5052899;28;20792;-72
2022/05/02 11:00:12;;;;;;;8.45;5.20;;;18.80;50.60;;;;;;5053172;28;20039;-73
2022/05/02 11:03:02;;;;;;;5.60;5.00;;;18.60;51.50;;;;;;5058567;28;20031;-71
2022/05/02 11:05:36;;;;;;;9.02;5.75;;;18.60;51.70;;;;;;5074803;28;20098;-71
2022/05/02 11:08:11;;;;;;;7.45;5.47;;;18.80;52.90;;;;;;5058600;28;20041;-72
2022/05/02 11:10:50;;;;;;;12.32;7.28;;;19.10;52.50;;;;;;5054638;28;20048;-72
2022/05/02 11:13:37;;;;;;;8.77;6.63;;;19.30;51.40;;;;;;5054828;28;20033;-72
2022/05/02 11:16:12;;;;;;;8.68;6.97;;;19.30;51.50;;;;;;5054776;28;20128;-72
2022/05/02 11:22:05;;;;;;;8.60;5.95;;;19.30;51.70;;;;;;5074557;28;20028;-72
2022/05/02 11:24:42;;;;;;;9.93;6.13;;;19.30;51.30;;;;;;5074692;28;20032;-71
2022/05/02 11:27:36;;;;;;;8.90;6.55;;;19.30;50.20;;;;;;5073305;28;20419;-72
2022/05/02 11:30:08;;;;;;;8.50;6.40;;;19.20;49.40;;;;;;5074480;28;20071;-72
2022/05/02 11:32:54;;;;;;;7.75;5.45;;;19.30;49.20;;;;;;5074501;28;20024;-72
2022/05/02 11:35:24;;;;;;;9.35;6.18;;;19.50;50.20;;;;;;5063594;28;20029;-72
2022/05/02 11:37:59;;;;;;;9.77;6.55;;;19.90;50.30;;;;;;5074337;28;20027;-72
2022/05/02 11:40:32;;;;;;;8.70;5.72;;;20.10;51.10;;;;;;5073806;28;20412;-72
2022/05/02 11:42:59;;;;;;;8.02;7.22;;;20.30;49.50;;;;;;5074370;28;20029;-72
2022/05/02 11:45:42;;;;;;;6.47;5.25;;;20.40;49.60;;;;;;5073889;28;20074;-72
2022/05/02 11:48:21;;;;;;;7.70;5.95;;;20.60;49.30;;;;;;5073745;28;20403;-72
2022/05/02 11:50:48;;;;;;;13.35;6.40;;;20.80;49.30;;;;;;5073352;28;20025;-72
2022/05/02 11:53:16;;;;;;;9.48;5.82;;;21.00;48.70;;;;;;5074127;28;20031;-72
2022/05/02 11:55:44;;;;;;;9.50;6.47;;;20.90;48.60;;;;;;5065877;28;20448;-72
2022/05/02 11:58:25;;;;;;;7.57;5.53;;;21.00;47.50;;;;;;5053797;28;20025;-72
2022/05/02 12:01:05;;;;;;;7.07;6.00;;;21.20;48.00;;;;;;5053039;28;20404;-76
2022/05/02 12:03:43;;;;;;;9.63;6.32;;;21.40;47.90;;;;;;5053396;28;20024;-74
2022/05/02 12:06:14;;;;;;;9.32;6.88;;;21.50;47.80;;;;;;5051770;28;20078;-73
2022/05/02 12:08:44;;;;;;;8.00;5.70;;;21.50;47.30;;;;;;5052616;28;20031;-73
2022/05/02 12:11:12;;;;;;;7.40;6.22;;;21.50;47.90;;;;;;5052055;28;20108;-73
2022/05/02 12:13:42;;;;;;;9.45;6.75;;;21.50;46.70;;;;;;5052438;28;20031;-73
2022/05/02 12:16:12;;;;;;;8.00;5.40;;;21.30;46.10;;;;;;5052337;28;20078;-73
2022/05/02 12:18:53;;;;;;;8.98;5.75;;;21.10;46.00;;;;;;5052273;28;20124;-72
2022/05/02 12:21:37;;;;;;;9.30;5.45;;;20.90;46.80;;;;;;5051965;28;20130;-72
2022/05/02 12:24:05;;;;;;;8.52;5.13;;;20.80;45.50;;;;;;5051402;28;20628;-72
2022/05/02 12:26:33;;;;;;;5.72;5.13;;;20.80;46.90;;;;;;5051568;28;20072;-73
2022/05/02 12:29:04;;;;;;;7.97;7.00;;;21.00;48.00;;;;;;5051703;28;20025;-72
2022/05/02 12:31:31;;;;;;;7.95;5.82;;;21.10;46.20;;;;;;5051580;28;20037;-72
2022/05/02 12:34:05;;;;;;;7.10;5.18;;;21.00;46.70;;;;;;5051886;28;20029;-73
2022/05/02 12:36:52;;;;;;;6.68;5.70;;;21.10;47.50;;;;;;5051642;28;20025;-73
2022/05/02 12:39:25;;;;;;;8.82;5.90;;;21.30;48.40;;;;;;5051425;28;20071;-72
2022/05/02 12:42:17;;;;;;;6.43;5.55;;;21.30;46.80;;;;;;5051294;28;20028;-72
2022/05/02 12:44:48;;;;;;;10.47;5.77;;;21.40;46.70;;;;;;5051582;28;20079;-72
2022/05/02 12:47:21;;;;;;;6.45;4.18;;;21.20;45.70;;;;;;5050839;28;20063;-72
2022/05/02 12:50:18;;;;;;;5.45;4.55;;;21.20;46.70;;;;;;5051268;28;20457;-78
2022/05/02 12:52:47;;;;;;;6.30;5.32;;;21.50;46.40;;;;;;5047634;28;20040;-78
2022/05/02 12:55:14;;;;;;;8.32;5.28;;;21.80;46.40;;;;;;5051785;28;20029;-75
2022/05/02 13:00:36;;;;;;;7.72;5.68;;;22.00;46.40;;;;;;5050755;28;20086;-73
2022/05/02 13:03:14;;;;;;;11.10;7.82;;;22.10;45.30;;;;;;5049323;28;20028;-74
2022/05/02 13:06:00;;;;;;;12.60;7.82;;;21.90;45.70;;;;;;5050962;28;20070;-72
2022/05/02 13:08:34;;;;;;;6.55;5.72;;;21.80;45.30;;;;;;5043921;28;20047;-72
2022/05/02 13:11:08;;;;;;;10.02;5.72;;;21.60;45.50;;;;;;5051186;28;20052;-72
2022/05/02 13:13:52;;;;;;;6.97;4.70;;;21.40;46.80;;;;;;5052849;28;20033;-72
2022/05/02 13:16:44;;;;;;;8.23;5.40;;;21.30;46.40;;;;;;5052776;28;20051;-72
2022/05/02 13:19:10;;;;;;;6.63;5.25;;;21.30;46.10;;;;;;5052689;28;20044;-72
2022/05/02 13:21:37;;;;;;;6.13;4.47;;;21.20;45.70;;;;;;5052917;28;20036;-72
2022/05/02 13:24:17;;;;;;;7.43;5.50;;;20.90;45.60;;;;;;5052412;28;20468;-72
2022/05/02 13:27:20;;;;;;;6.38;5.70;;;20.70;46.60;;;;;;5052642;28;20078;-72
2022/05/02 13:29:57;;;;;;;7.07;6.10;;;20.70;46.80;;;;;;5052915;28;20063;-72
2022/05/02 13:32:41;;;;;;;10.10;5.90;;;20.70;46.10;;;;;;5052703;28;20039;-73
2022/05/02 13:35:12;;;;;;;10.07;5.15;;;20.70;47.00;;;;;;5052444;28;20037;-72
2022/05/02 13:37:41;;;;;;;8.77;5.70;;;20.90;46.20;;;;;;5052232;28;20029;-72
2022/05/02 13:40:14;;;;;;;7.00;5.00;;;21.10;44.80;;;;;;5052338;28;20397;-72
2022/05/02 13:42:59;;;;;;;5.22;4.07;;;21.30;44.40;;;;;;5052421;28;20032;-72
2022/05/02 13:45:43;;;;;;;7.47;4.20;;;21.50;45.40;;;;;;5051495;28;20028;-72
2022/05/02 13:48:21;;;;;;;10.48;6.40;;;21.90;44.70;;;;;;5052568;28;20075;-72